Time;durP1;ratioP1;P1;durP2;ratioP2;P2;SDS_P1;SDS_P2;PMS_P1;PMS_P2;Temp;Humidity;BMP_temperature;BMP_pressure;BME280_temperature;BME280_humidity;BME280_pressure;Samples;Min_cycle;Max_cycle;Signal;HPM_P1;HPM_P2
2022/05/01 00:00:48;;;;;;;0.80;0.80;;;3.10;99.90;;;;;;5020002;28;20048;-73
2022/05/01 00:03:30;;;;;;;0.73;0.73;;;3.10;99.90;;;;;;5028966;28;20044;-73
2022/05/01 00:06:14;;;;;;;0.90;0.90;;;3.00;99.90;;;;;;5014477;28;20409;-73
2022/05/01 00:08:41;;;;;;;0.80;0.80;;;2.90;99.90;;;;;;5014098;28;20045;-73
2022/05/01 00:11:10;;;;;;;0.90;0.90;;;2.90;99.90;;;;;;5012811;28;20398;-73
2022/05/01 00:13:36;;;;;;;0.90;0.90;;;2.90;99.90;;;;;;5006205;28;20159;-73
2022/05/01 00:16:02;;;;;;;0.85;0.85;;;2.90;99.90;;;;;;5017288;28;20045;-73
2022/05/01 00:18:28;;;;;;;0.90;0.90;;;2.90;99.90;;;;;;5016171;28;20459;-73
2022/05/01 00:20:53;;;;;;;0.80;0.80;;;2.80;99.90;;;;;;5025293;28;20029;-74
2022/05/01 00:23:19;;;;;;;0.80;0.80;;;2.80;99.90;;;;;;5004347;28;20045;-73
2022/05/01 00:25:46;;;;;;;0.70;0.70;;;2.80;99.90;;;;;;5009887;28;20037;-73
2022/05/01 00:28:15;;;;;;;0.73;0.73;;;2.70;99.90;;;;;;5012507;28;20048;-73
2022/05/01 00:30:41;;;;;;;0.80;0.80;;;2.70;99.90;;;;;;5021855;28;20029;-73
2022/05/01 00:38:37;;;;;;;0.80;0.80;;;2.70;99.90;;;;;;5015480;28;20049;-73
2022/05/01 00:41:07;;;;;;;0.80;0.80;;;2.70;99.90;;;;;;5024421;28;20147;-73
2022/05/01 00:43:53;;;;;;;1.00;1.00;;;2.70;99.90;;;;;;5027917;28;20052;-73
2022/05/01 00:46:19;;;;;;;1.10;1.10;;;2.60;99.90;;;;;;5024239;28;20049;-73
2022/05/01 00:48:44;;;;;;;0.80;0.80;;;2.60;99.90;;;;;;5025094;28;20160;-73
2022/05/01 00:51:10;;;;;;;0.60;0.60;;;2.50;99.90;;;;;;5015645;28;20475;-73
2022/05/01 00:53:36;;;;;;;1.35;1.35;;;2.50;99.90;;;;;;5012045;28;20037;-73
2022/05/01 00:56:02;;;;;;;0.77;0.77;;;2.40;99.90;;;;;;5018617;28;20081;-73
2022/05/01 00:58:29;;;;;;;0.70;0.70;;;2.40;99.90;;;;;;5009719;28;20048;-73
2022/05/01 01:00:55;;;;;;;3.03;2.85;;;2.40;99.90;;;;;;5001262;28;20489;-73
2022/05/01 01:03:21;;;;;;;0.80;0.80;;;2.30;99.90;;;;;;5018463;28;20068;-73
2022/05/01 01:05:47;;;;;;;0.80;0.80;;;2.30;99.90;;;;;;5030637;28;20510;-73
2022/05/01 01:08:13;;;;;;;0.90;0.90;;;2.30;99.90;;;;;;5011092;28;20042;-73
2022/05/01 01:10:38;;;;;;;0.80;0.80;;;2.30;99.90;;;;;;5020968;28;20029;-73
2022/05/01 01:13:04;;;;;;;0.90;0.90;;;2.30;99.90;;;;;;5028779;28;20079;-73
2022/05/01 01:15:30;;;;;;;0.70;0.70;;;2.20;99.90;;;;;;5017518;28;20040;-73
2022/05/01 01:17:56;;;;;;;0.70;0.70;;;2.10;99.90;;;;;;5031317;28;20363;-73
2022/05/01 01:20:24;;;;;;;0.88;0.88;;;2.00;99.90;;;;;;5010722;28;20099;-73
2022/05/01 01:22:55;;;;;;;0.88;0.88;;;2.00;99.90;;;;;;5019706;28;20033;-73
2022/05/01 01:25:29;;;;;;;1.00;1.00;;;1.90;99.90;;;;;;5025623;28;20677;-73
2022/05/01 01:27:59;;;;;;;0.70;0.70;;;1.90;99.90;;;;;;5016267;28;20064;-73
2022/05/01 01:33:10;;;;;;;0.73;0.73;;;1.80;99.90;;;;;;5020866;28;20390;-73
2022/05/01 01:35:38;;;;;;;1.00;1.00;;;1.80;99.90;;;;;;5025338;28;20075;-73
2022/05/01 01:38:04;;;;;;;1.00;1.00;;;1.80;99.90;;;;;;5006253;28;20103;-73
2022/05/01 01:40:49;;;;;;;0.70;0.70;;;1.80;99.90;;;;;;4998092;28;20049;-73
2022/05/01 01:43:18;;;;;;;0.93;0.93;;;1.70;99.90;;;;;;5019944;28;20124;-73
2022/05/01 01:45:45;;;;;;;0.98;0.98;;;1.60;99.90;;;;;;5007551;28;20036;-73
2022/05/01 01:48:13;;;;;;;0.90;0.90;;;1.60;99.90;;;;;;5012606;28;20028;-73
2022/05/01 01:50:39;;;;;;;0.95;0.95;;;1.50;99.90;;;;;;5006946;28;20062;-73
2022/05/01 01:53:05;;;;;;;1.67;1.58;;;1.50;99.90;;;;;;5002137;28;20425;-73
2022/05/01 01:55:35;;;;;;;0.90;0.90;;;1.50;99.90;;;;;;5000411;28;20103;-73
2022/05/01 01:58:01;;;;;;;0.80;0.80;;;1.40;99.90;;;;;;4988348;28;20034;-73
2022/05/01 02:00:27;;;;;;;0.90;0.90;;;1.40;99.90;;;;;;5005950;28;20044;-73
2022/05/01 02:03:00;;;;;;;1.30;1.30;;;1.40;99.90;;;;;;4989325;28;20045;-73
2022/05/01 02:05:27;;;;;;;1.48;1.48;;;1.40;99.90;;;;;;4989398;28;20053;-74
2022/05/01 02:07:56;;;;;;;0.90;0.90;;;1.30;99.90;;;;;;4980773;28;20509;-73
2022/05/01 02:10:22;;;;;;;0.80;0.80;;;1.30;99.90;;;;;;5000795;28;20056;-73
2022/05/01 02:12:48;;;;;;;1.00;1.00;;;1.30;99.90;;;;;;4997463;28;20041;-73
2022/05/01 02:15:13;;;;;;;0.90;0.90;;;1.40;99.90;;;;;;5012503;28;20065;-73
2022/05/01 02:17:39;;;;;;;0.90;0.90;;;1.40;99.90;;;;;;4999502;28;20247;-73
2022/05/01 02:20:06;;;;;;;0.82;0.82;;;1.40;99.90;;;;;;4987129;28;20045;-73
2022/05/01 02:22:32;;;;;;;1.00;1.00;;;1.40;99.90;;;;;;5007311;28;20618;-73
2022/05/01 02:24:57;;;;;;;1.00;1.00;;;1.30;99.90;;;;;;4981239;28;20041;-73
2022/05/01 02:27:23;;;;;;;1.83;1.73;;;1.30;99.90;;;;;;4993630;28;20052;-73
2022/05/01 02:29:48;;;;;;;0.98;0.98;;;1.20;99.90;;;;;;5026913;28;20045;-73
2022/05/01 02:32:14;;;;;;;2.10;2.00;;;1.20;99.90;;;;;;4992740;28;20358;-73
2022/05/01 02:34:40;;;;;;;2.53;1.90;;;1.10;99.90;;;;;;5002107;28;20116;-73
2022/05/01 02:37:06;;;;;;;1.30;1.30;;;1.10;99.90;;;;;;4980544;28;20034;-73
2022/05/01 02:39:35;;;;;;;0.90;0.90;;;1.20;99.90;;;;;;4993617;28;20053;-73
2022/05/01 02:42:01;;;;;;;0.95;0.95;;;1.20;99.90;;;;;;4995175;28;20050;-73
2022/05/01 02:44:27;;;;;;;0.93;0.93;;;1.20;99.90;;;;;;4985072;28;20060;-73
2022/05/01 02:46:52;;;;;;;1.00;1.00;;;1.30;99.90;;;;;;5004851;28;20041;-74
2022/05/01 02:49:20;;;;;;;1.00;1.00;;;1.20;99.90;;;;;;5001585;28;20037;-73
2022/05/01 02:51:45;;;;;;;1.00;1.00;;;1.20;99.90;;;;;;5008512;28;20136;-74
2022/05/01 02:54:31;;;;;;;1.00;1.00;;;1.20;99.90;;;;;;5021395;28;20033;-73
2022/05/01 02:56:57;;;;;;;1.00;1.00;;;1.10;99.90;;;;;;4949867;28;20047;-73
2022/05/01 02:59:22;;;;;;;1.00;1.00;;;1.00;99.90;;;;;;4942868;29;20058;-73
2022/05/01 03:01:48;;;;;;;0.90;0.90;;;0.90;99.90;;;;;;4918720;29;20058;-73
2022/05/01 03:04:13;;;;;;;1.00;1.00;;;0.90;99.90;;;;;;4935147;28;20058;-73
2022/05/01 03:06:39;;;;;;;0.90;0.90;;;0.90;99.90;;;;;;4952752;28;20047;-74
2022/05/01 03:09:05;;;;;;;0.90;0.90;;;0.90;99.90;;;;;;4980602;28;20081;-73
2022/05/01 03:11:32;;;;;;;0.93;0.93;;;0.80;99.90;;;;;;4964110;28;20043;-73
2022/05/01 03:13:58;;;;;;;1.00;1.00;;;0.80;99.90;;;;;;4931240;29;20102;-74
2022/05/01 03:16:23;;;;;;;1.40;1.40;;;0.80;99.90;;;;;;4943393;28;20080;-73
2022/05/01 03:24:23;;;;;;;1.00;1.00;;;0.80;99.90;;;;;;4977207;28;20046;-73
2022/05/01 03:26:48;;;;;;;0.80;0.80;;;0.80;99.90;;;;;;4984993;28;20149;-73
2022/05/01 03:29:15;;;;;;;0.80;0.80;;;0.70;99.90;;;;;;4966347;28;20042;-73
2022/05/01 03:31:41;;;;;;;5.82;5.47;;;0.70;99.90;;;;;;4966202;28;20043;-73
2022/05/01 03:34:07;;;;;;;2.05;1.95;;;0.70;99.90;;;;;;4990314;28;20048;-73
2022/05/01 03:36:33;;;;;;;1.98;1.88;;;0.60;99.90;;;;;;5030726;28;20123;-74
2022/05/01 03:38:59;;;;;;;1.55;1.55;;;0.60;99.90;;;;;;5013222;28;20659;-73
2022/05/01 03:41:26;;;;;;;2.08;1.98;;;0.60;99.90;;;;;;5019326;28;20045;-73
2022/05/01 03:43:52;;;;;;;1.02;1.02;;;0.60;99.90;;;;;;5016925;28;20391;-73
2022/05/01 03:46:22;;;;;;;1.20;1.20;;;0.60;99.90;;;;;;5012451;28;20152;-73
2022/05/01 03:48:48;;;;;;;1.20;1.20;;;0.60;99.90;;;;;;5000625;28;20045;-73
2022/05/01 03:51:13;;;;;;;1.10;1.10;;;0.50;99.90;;;;;;5037880;28;20075;-73
2022/05/01 03:53:39;;;;;;;1.10;1.10;;;0.50;99.90;;;;;;5017819;28;20128;-73
2022/05/01 03:56:05;;;;;;;1.42;1.42;;;0.50;99.90;;;;;;5020545;28;20626;-73
2022/05/01 03:58:51;;;;;;;1.00;1.00;;;0.50;99.90;;;;;;5012570;28;20041;-73
2022/05/01 04:01:20;;;;;;;0.98;0.98;;;0.50;99.90;;;;;;4908284;29;20178;-74
2022/05/01 04:03:46;;;;;;;0.95;0.95;;;0.50;99.90;;;;;;4947863;28;20077;-74
2022/05/01 04:06:11;;;;;;;1.10;1.10;;;0.50;99.90;;;;;;4965937;28;20562;-73
2022/05/01 04:08:40;;;;;;;2.10;2.00;;;0.40;99.90;;;;;;4950365;28;20139;-73
2022/05/01 04:11:06;;;;;;;1.60;1.52;;;0.40;99.90;;;;;;4952147;28;20104;-73
2022/05/01 04:13:35;;;;;;;1.20;1.20;;;0.40;99.90;;;;;;4946374;28;20050;-73
2022/05/01 04:16:01;;;;;;;1.65;1.65;;;0.40;99.90;;;;;;4969250;28;20422;-73
2022/05/01 04:18:26;;;;;;;1.02;1.02;;;0.40;99.90;;;;;;4961872;28;20042;-73
2022/05/01 04:21:13;;;;;;;1.10;1.10;;;0.50;99.90;;;;;;4948181;28;20108;-73
2022/05/01 04:23:39;;;;;;;1.10;1.10;;;0.50;99.90;;;;;;4911402;29;20067;-73
2022/05/01 04:26:05;;;;;;;1.30;1.30;;;0.60;99.90;;;;;;4885499;29;20944;-73
2022/05/01 04:28:30;;;;;;;2.20;2.05;;;0.60;99.90;;;;;;4910067;29;20048;-73
2022/05/01 04:30:56;;;;;;;1.30;1.30;;;0.60;99.90;;;;;;4905162;28;20090;-73
2022/05/01 04:33:42;;;;;;;1.10;1.10;;;0.70;99.90;;;;;;4915813;29;20518;-74
2022/05/01 04:36:07;;;;;;;1.30;1.30;;;0.80;99.90;;;;;;4871753;29;20055;-74
2022/05/01 04:38:33;;;;;;;1.08;1.08;;;0.80;99.90;;;;;;4911139;28;20051;-74
2022/05/01 04:41:04;;;;;;;1.65;1.65;;;0.90;99.90;;;;;;4951089;28;20051;-73
2022/05/01 04:43:31;;;;;;;1.52;1.42;;;1.00;99.90;;;;;;4942406;29;20094;-73
2022/05/01 04:45:58;;;;;;;1.10;1.10;;;1.10;99.90;;;;;;4946193;28;20038;-73
2022/05/01 04:48:25;;;;;;;1.20;1.20;;;1.40;99.90;;;;;;4927868;29;20055;-74
2022/05/01 04:51:00;;;;;;;1.17;1.17;;;1.80;99.90;;;;;;4932403;29;20110;-74
2022/05/01 04:53:29;;;;;;;1.10;1.10;;;1.90;99.90;;;;;;4923939;28;20696;-74
2022/05/01 04:55:54;;;;;;;0.90;0.90;;;2.00;99.90;;;;;;4922897;29;20936;-74
2022/05/01 04:58:20;;;;;;;1.08;1.08;;;2.00;99.90;;;;;;4928026;29;20047;-74
2022/05/01 05:00:49;;;;;;;1.00;1.00;;;2.00;99.90;;;;;;4919882;28;20059;-74
2022/05/01 05:03:17;;;;;;;1.00;1.00;;;2.00;99.90;;;;;;4946799;28;20280;-74
2022/05/01 05:05:43;;;;;;;1.00;1.00;;;2.00;99.90;;;;;;4932452;29;20161;-74
2022/05/01 05:11:11;;;;;;;1.00;1.00;;;1.90;99.90;;;;;;4891614;29;20113;-74
2022/05/01 05:13:36;;;;;;;0.98;0.98;;;1.90;99.90;;;;;;4908636;29;20051;-74
2022/05/01 05:16:02;;;;;;;1.05;1.05;;;2.00;99.90;;;;;;4928553;29;20058;-74
2022/05/01 05:18:28;;;;;;;0.90;0.90;;;2.10;99.90;;;;;;4913845;29;20039;-74
2022/05/01 05:20:54;;;;;;;1.10;1.10;;;2.20;99.90;;;;;;4933288;28;20047;-74
2022/05/01 05:23:20;;;;;;;1.10;1.10;;;2.20;99.90;;;;;;4944173;29;20467;-74
2022/05/01 05:25:45;;;;;;;1.00;1.00;;;2.50;99.90;;;;;;4915699;29;20047;-74
2022/05/01 05:28:11;;;;;;;1.08;1.08;;;2.90;99.90;;;;;;4910707;29;20050;-74
2022/05/01 05:33:25;;;;;;;1.27;1.27;;;3.40;99.90;;;;;;4875086;29;20048;-74
2022/05/01 05:35:51;;;;;;;1.08;1.08;;;3.70;99.90;;;;;;4882398;29;20048;-74
2022/05/01 05:38:16;;;;;;;1.00;1.00;;;4.60;99.90;;;;;;4867487;29;20055;-74
2022/05/01 05:40:44;;;;;;;8.18;5.88;;;5.70;99.90;;;;;;4853424;29;20067;-74
2022/05/01 05:43:09;;;;;;;0.93;0.93;;;6.40;99.90;;;;;;4876390;29;20056;-74
2022/05/01 05:45:37;;;;;;;0.90;0.90;;;7.00;99.90;;;;;;4855536;29;20055;-74
2022/05/01 05:48:03;;;;;;;1.00;1.00;;;7.50;99.90;;;;;;4885973;29;20048;-74
2022/05/01 05:50:29;;;;;;;1.00;1.00;;;7.70;99.90;;;;;;4924969;28;20122;-74
2022/05/01 05:52:54;;;;;;;2.72;2.53;;;7.70;99.90;;;;;;4926970;28;20069;-74
2022/05/01 05:55:20;;;;;;;0.80;0.80;;;7.60;99.90;;;;;;4932152;28;20292;-75
2022/05/01 05:57:46;;;;;;;0.80;0.80;;;7.40;99.90;;;;;;4927396;28;20043;-74
2022/05/01 06:00:12;;;;;;;0.98;0.98;;;7.40;99.90;;;;;;4946420;28;20122;-74
2022/05/01 06:02:37;;;;;;;0.98;0.98;;;7.20;99.90;;;;;;4928020;28;20430;-74
2022/05/01 06:05:04;;;;;;;1.35;1.33;;;7.10;99.90;;;;;;4931337;29;20062;-74
2022/05/01 06:07:30;;;;;;;6.57;3.55;;;7.10;99.90;;;;;;4946855;29;20242;-75
2022/05/01 06:09:55;;;;;;;1.02;1.02;;;7.30;99.90;;;;;;4945676;28;22093;-74
2022/05/01 06:12:21;;;;;;;1.15;1.15;;;7.60;99.90;;;;;;5026911;28;20416;-74
2022/05/01 06:14:47;;;;;;;1.10;1.10;;;7.70;99.90;;;;;;5028770;28;20033;-74
2022/05/01 06:17:12;;;;;;;0.68;0.68;;;7.70;99.90;;;;;;5012088;28;20037;-74
2022/05/01 06:19:39;;;;;;;1.10;1.08;;;7.90;99.90;;;;;;5025660;28;20040;-74
2022/05/01 06:22:05;;;;;;;1.48;1.40;;;8.60;99.90;;;;;;5027130;28;20154;-75
2022/05/01 06:24:31;;;;;;;0.98;0.98;;;9.60;99.90;;;;;;5038150;28;20044;-75
2022/05/01 06:26:57;;;;;;;0.85;0.85;;;10.60;99.90;;;;;;5032633;28;20037;-75
2022/05/01 06:29:23;;;;;;;0.50;0.50;;;11.50;99.90;;;;;;5057120;28;20041;-75
2022/05/01 06:31:49;;;;;;;1.02;1.02;;;11.90;99.90;;;;;;5008077;28;20048;-75
2022/05/01 06:34:15;;;;;;;0.65;0.65;;;12.00;99.90;;;;;;5058762;28;20097;-75
2022/05/01 06:36:41;;;;;;;1.13;1.13;;;12.00;99.90;;;;;;5041671;28;20045;-75
2022/05/01 06:39:09;;;;;;;0.40;0.40;;;11.90;99.90;;;;;;5004542;28;20040;-75
2022/05/01 06:41:35;;;;;;;0.80;0.80;;;11.80;99.90;;;;;;5022281;28;20171;-75
2022/05/01 06:44:00;;;;;;;0.60;0.60;;;12.00;99.90;;;;;;5027633;28;20159;-75
2022/05/01 06:46:26;;;;;;;0.75;0.75;;;12.10;99.90;;;;;;5045588;28;20091;-75
2022/05/01 06:48:51;;;;;;;1.02;1.02;;;12.70;99.90;;;;;;5025405;28;20431;-75
2022/05/01 06:51:18;;;;;;;0.43;0.43;;;13.40;99.90;;;;;;5004253;28;20552;-75
2022/05/01 06:53:43;;;;;;;0.40;0.40;;;14.20;99.90;;;;;;5014658;28;20049;-75
2022/05/01 06:56:09;;;;;;;0.52;0.52;;;14.70;99.90;;;;;;5014813;28;20064;-76
2022/05/01 06:58:35;;;;;;;1.45;1.35;;;15.10;99.90;;;;;;5010595;28;20063;-75
2022/05/01 07:01:01;;;;;;;0.40;0.40;;;15.40;99.90;;;;;;5004108;28;20477;-75
2022/05/01 07:03:27;;;;;;;0.30;0.30;;;15.80;99.90;;;;;;5018241;28;20095;-75
2022/05/01 07:05:53;;;;;;;1.38;1.27;;;16.00;99.90;;;;;;5008702;28;20046;-75
2022/05/01 07:08:19;;;;;;;1.00;0.95;;;16.00;99.90;;;;;;4990601;28;20087;-75
2022/05/01 07:10:44;;;;;;;0.80;0.80;;;15.90;99.90;;;;;;5000079;28;20041;-76
2022/05/01 07:13:10;;;;;;;0.50;0.50;;;15.70;99.90;;;;;;4975201;28;20038;-75
2022/05/01 07:15:37;;;;;;;1.70;1.52;;;15.80;99.90;;;;;;4995550;28;20168;-75
2022/05/01 07:18:04;;;;;;;1.40;1.23;;;15.50;99.90;;;;;;4995401;28;20041;-75
2022/05/01 07:20:33;;;;;;;1.55;0.90;;;14.50;99.90;;;;;;5004597;28;20033;-75
2022/05/01 07:22:58;;;;;;;0.77;0.50;;;13.60;99.90;;;;;;4986229;28;20148;-75
2022/05/01 07:25:24;;;;;;;1.48;1.38;;;13.00;99.90;;;;;;5009150;28;20564;-75
2022/05/01 07:27:50;;;;;;;1.00;1.00;;;12.80;99.90;;;;;;4997747;28;20594;-75
2022/05/01 07:30:15;;;;;;;1.02;1.00;;;12.50;99.90;;;;;;4998188;28;20057;-75
2022/05/01 07:32:41;;;;;;;1.15;1.15;;;12.60;99.90;;;;;;5013581;28;20049;-75
2022/05/01 07:35:07;;;;;;;2.03;1.05;;;12.50;99.90;;;;;;5013216;28;20044;-76
2022/05/01 07:37:33;;;;;;;0.45;0.45;;;12.40;99.90;;;;;;5014403;28;20034;-75
2022/05/01 07:39:59;;;;;;;0.20;0.20;;;12.10;99.90;;;;;;5014217;28;20504;-75
2022/05/01 07:42:25;;;;;;;0.40;0.40;;;11.90;99.90;;;;;;5013566;28;20427;-75
2022/05/01 07:44:51;;;;;;;0.55;0.55;;;11.80;99.90;;;;;;5013837;28;20049;-75
2022/05/01 07:47:17;;;;;;;0.20;0.20;;;11.70;99.90;;;;;;4996742;28;20120;-75
2022/05/01 07:49:43;;;;;;;3.90;2.10;;;11.60;99.90;;;;;;5013018;28;20123;-74
2022/05/01 07:52:09;;;;;;;0.98;0.93;;;11.80;99.90;;;;;;5013133;28;20604;-75
2022/05/01 07:54:35;;;;;;;0.47;0.47;;;12.00;99.90;;;;;;5012505;28;20123;-75
2022/05/01 07:57:00;;;;;;;0.50;0.50;;;12.20;99.90;;;;;;4997225;28;20375;-75
2022/05/01 07:59:26;;;;;;;1.00;0.65;;;12.30;99.90;;;;;;5013542;28;20033;-75
2022/05/01 08:01:53;;;;;;;1.05;1.02;;;12.50;99.90;;;;;;5013100;28;20041;-75
2022/05/01 08:04:28;;;;;;;0.40;0.40;;;12.70;99.90;;;;;;4993301;28;20136;-75
2022/05/01 08:06:54;;;;;;;0.20;0.20;;;12.70;99.90;;;;;;5011708;28;20472;-75
2022/05/01 08:09:19;;;;;;;0.30;0.30;;;12.80;99.90;;;;;;4979194;28;20046;-75
2022/05/01 08:11:45;;;;;;;1.77;1.65;;;12.90;99.90;;;;;;4994031;28;20386;-74
2022/05/01 08:14:12;;;;;;;0.20;0.20;;;12.90;99.90;;;;;;4993336;28;20046;-75
2022/05/01 08:16:41;;;;;;;3.72;2.05;;;12.90;99.90;;;;;;4999551;28;20041;-74
2022/05/01 08:21:52;;;;;;;0.70;0.63;;;12.80;99.90;;;;;;5029139;28;20049;-75
2022/05/01 08:24:18;;;;;;;1.23;0.98;;;12.90;99.90;;;;;;5009655;28;20041;-74
2022/05/01 08:26:47;;;;;;;0.20;0.20;;;13.00;99.90;;;;;;5009386;28;20038;-75
2022/05/01 08:29:16;;;;;;;1.02;1.02;;;13.10;99.90;;;;;;4980639;28;20397;-75
2022/05/01 08:31:42;;;;;;;1.48;1.00;;;13.30;99.90;;;;;;4993440;28;20125;-74
2022/05/01 08:34:12;;;;;;;0.10;0.10;;;13.20;99.90;;;;;;4996448;28;20128;-75
2022/05/01 08:36:39;;;;;;;0.75;0.75;;;13.10;99.90;;;;;;5027960;28;20041;-75
2022/05/01 08:39:05;;;;;;;0.70;0.70;;;13.10;99.90;;;;;;5028027;28;20088;-75
2022/05/01 08:41:32;;;;;;;0.20;0.20;;;13.10;99.90;;;;;;4996018;28;20044;-75
2022/05/01 08:43:59;;;;;;;0.22;0.22;;;13.20;99.90;;;;;;5012046;28;20049;-75
2022/05/01 08:46:24;;;;;;;3.30;3.00;;;13.50;99.90;;;;;;4992407;28;20092;-75
2022/05/01 08:49:00;;;;;;;0.50;0.50;;;13.90;99.90;;;;;;5026542;28;20416;-75
2022/05/01 08:51:29;;;;;;;8.00;2.40;;;13.90;99.90;;;;;;5026938;28;20088;-75
2022/05/01 08:53:56;;;;;;;1.95;0.90;;;13.80;99.90;;;;;;5031446;28;20037;-75
2022/05/01 08:56:22;;;;;;;0.63;0.63;;;13.90;99.90;;;;;;5032083;28;20040;-74
2022/05/01 08:58:49;;;;;;;0.93;0.93;;;13.90;99.80;;;;;;5029495;28;20084;-75
2022/05/01 09:01:14;;;;;;;0.43;0.35;;;13.90;99.90;;;;;;5015125;28;20476;-75
2022/05/01 09:03:43;;;;;;;0.10;0.10;;;13.90;99.10;;;;;;5032278;28;20048;-75
2022/05/01 09:06:10;;;;;;;0.45;0.45;;;14.10;99.90;;;;;;5030019;28;20067;-75
2022/05/01 09:08:38;;;;;;;0.45;0.45;;;14.30;99.60;;;;;;5010263;28;20236;-74
2022/05/01 09:13:48;;;;;;;0.20;0.20;;;14.60;98.20;;;;;;5021425;28;20098;-75
2022/05/01 09:16:14;;;;;;;1.40;0.93;;;14.80;99.00;;;;;;5012430;28;20033;-75
2022/05/01 09:18:44;;;;;;;2.08;1.17;;;14.90;99.90;;;;;;5010947;28;20033;-74
2022/05/01 09:21:10;;;;;;;0.98;0.93;;;15.40;98.30;;;;;;5026938;28;20044;-75
2022/05/01 09:23:46;;;;;;;0.63;0.60;;;15.90;97.20;;;;;;5023840;28;20029;-74
2022/05/01 09:26:13;;;;;;;0.10;0.10;;;16.10;97.00;;;;;;5010354;28;20048;-75
2022/05/01 09:28:49;;;;;;;0.20;0.20;;;16.30;96.90;;;;;;5006445;28;20045;-75
2022/05/01 09:31:16;;;;;;;0.30;0.30;;;16.40;94.50;;;;;;5008834;28;20041;-73
2022/05/01 09:33:42;;;;;;;0.20;0.20;;;16.40;93.60;;;;;;5014566;28;21052;-73
2022/05/01 09:36:09;;;;;;;0.70;0.70;;;16.50;93.10;;;;;;5000510;28;20163;-73
2022/05/01 09:38:35;;;;;;;1.52;1.42;;;16.60;92.50;;;;;;5003643;28;20029;-73
2022/05/01 09:41:13;;;;;;;0.47;0.47;;;16.50;95.00;;;;;;5019177;28;20055;-74
2022/05/01 09:43:46;;;;;;;0.20;0.20;;;16.40;94.90;;;;;;5020974;28;20052;-73
2022/05/01 09:46:29;;;;;;;0.45;0.45;;;16.20;92.40;;;;;;5001061;28;20093;-73
2022/05/01 09:48:59;;;;;;;0.40;0.40;;;16.10;93.60;;;;;;5018100;28;20053;-73
2022/05/01 09:51:29;;;;;;;0.65;0.57;;;16.00;91.90;;;;;;5018459;28;20044;-73
2022/05/01 09:53:56;;;;;;;0.30;0.30;;;16.00;91.50;;;;;;5003452;28;20400;-73
2022/05/01 09:56:21;;;;;;;0.85;0.85;;;16.20;92.90;;;;;;5024207;28;20063;-73
2022/05/01 09:59:01;;;;;;;0.35;0.35;;;16.20;91.80;;;;;;5018987;28;20420;-73
2022/05/01 10:01:28;;;;;;;0.57;0.52;;;16.20;92.20;;;;;;5028438;28;20041;-73
2022/05/01 10:03:54;;;;;;;0.77;0.77;;;16.20;88.10;;;;;;5027081;28;20040;-74
2022/05/01 10:06:20;;;;;;;1.45;1.35;;;16.20;91.20;;;;;;5024883;28;20382;-73
2022/05/01 10:08:47;;;;;;;2.30;1.63;;;16.00;88.70;;;;;;5023379;28;20098;-73
2022/05/01 10:11:16;;;;;;;1.30;1.15;;;15.70;86.30;;;;;;5017355;28;20037;-73
2022/05/01 10:13:43;;;;;;;0.28;0.28;;;15.50;87.40;;;;;;5026463;28;20072;-73
2022/05/01 10:16:11;;;;;;;0.10;0.10;;;15.40;86.00;;;;;;5024867;28;20492;-73
2022/05/01 10:18:38;;;;;;;4.15;1.15;;;15.40;87.00;;;;;;5032011;28;20037;-73
2022/05/01 10:21:05;;;;;;;10.32;1.55;;;15.60;90.00;;;;;;5025173;28;20065;-73
2022/05/01 10:23:31;;;;;;;0.95;0.60;;;15.90;86.10;;;;;;5009530;28;20495;-73
2022/05/01 10:26:06;;;;;;;0.50;0.50;;;15.80;85.30;;;;;;5019303;28;20474;-73
2022/05/01 10:28:50;;;;;;;0.50;0.38;;;15.70;84.60;;;;;;5000605;28;20032;-73
2022/05/01 10:34:43;;;;;;;0.30;0.30;;;15.40;87.30;;;;;;5036628;28;20065;-73
2022/05/01 10:37:47;;;;;;;1.20;0.77;;;15.30;88.10;;;;;;4991319;28;20035;-73
2022/05/01 10:40:13;;;;;;;;;;;15.40;85.00;;;;;;5028529;28;20132;-72
2022/05/01 10:42:45;;;;;;;0.10;0.10;;;15.50;86.70;;;;;;5046496;28;20451;-72
2022/05/01 10:45:23;;;;;;;0.40;0.40;;;15.60;87.20;;;;;;5004870;28;20078;-73
2022/05/01 10:47:56;;;;;;;0.50;0.50;;;15.70;86.40;;;;;;5020285;28;20059;-73
2022/05/01 10:50:21;;;;;;;0.20;0.20;;;15.90;86.70;;;;;;5012741;28;20057;-73
2022/05/01 10:53:04;;;;;;;0.85;0.80;;;16.10;85.70;;;;;;5010130;28;20041;-73
2022/05/01 10:55:48;;;;;;;3.60;2.13;;;16.20;85.60;;;;;;5029664;28;20052;-72
2022/05/01 10:58:21;;;;;;;0.30;0.30;;;16.30;86.50;;;;;;5005268;28;20041;-73
2022/05/01 11:00:50;;;;;;;0.55;0.55;;;16.50;81.00;;;;;;5004253;28;20040;-73
2022/05/01 11:03:29;;;;;;;0.70;0.70;;;16.50;81.10;;;;;;5013236;28;20080;-73
2022/05/01 11:06:04;;;;;;;0.40;0.40;;;16.80;81.70;;;;;;5016870;28;20040;-73
2022/05/01 11:08:40;;;;;;;0.75;0.50;;;17.20;83.70;;;;;;5011009;28;20052;-73
2022/05/01 11:11:10;;;;;;;1.35;1.00;;;17.50;75.50;;;;;;5003171;28;20122;-73
2022/05/01 11:13:38;;;;;;;0.90;0.90;;;17.70;80.50;;;;;;5020951;28;20046;-72
2022/05/01 11:16:05;;;;;;;1.85;1.00;;;17.70;79.50;;;;;;5019650;28;20148;-73
2022/05/01 11:18:34;;;;;;;0.30;0.30;;;17.70;76.60;;;;;;5013712;28;20123;-73
2022/05/01 11:21:19;;;;;;;0.47;0.47;;;17.70;75.20;;;;;;5017257;28;20037;-73
2022/05/01 11:23:45;;;;;;;0.10;0.10;;;17.60;72.20;;;;;;5013073;28;20041;-73
2022/05/01 11:26:17;;;;;;;0.13;0.13;;;17.40;74.60;;;;;;5015758;28;20132;-73
2022/05/01 11:28:48;;;;;;;0.65;0.65;;;17.40;73.50;;;;;;5033836;28;20126;-73
2022/05/01 11:31:41;;;;;;;2.05;0.28;;;17.40;68.80;;;;;;5050148;28;20378;-73
2022/05/01 11:34:16;;;;;;;0.20;0.20;;;17.70;71.60;;;;;;4999514;28;20042;-73
2022/05/01 11:36:57;;;;;;;1.15;1.05;;;18.20;70.20;;;;;;5030602;28;20059;-73
2022/05/01 11:39:51;;;;;;;0.90;0.90;;;18.60;69.40;;;;;;5012911;28;20076;-73
2022/05/01 11:42:26;;;;;;;2.15;1.38;;;19.00;68.30;;;;;;5007473;28;20049;-73
2022/05/01 11:44:52;;;;;;;0.93;0.93;;;19.30;69.30;;;;;;5027628;28;20048;-73
2022/05/01 11:47:19;;;;;;;1.35;0.88;;;19.20;69.50;;;;;;5049026;28;20544;-73
2022/05/01 11:49:45;;;;;;;0.20;0.20;;;19.00;65.20;;;;;;5049968;28;20045;-73
2022/05/01 11:52:12;;;;;;;1.33;0.95;;;18.40;64.10;;;;;;5010101;28;20045;-73
2022/05/01 11:54:50;;;;;;;0.88;0.88;;;17.90;65.80;;;;;;5014276;28;20152;-73
2022/05/01 12:03:01;;;;;;;3.08;1.40;;;16.90;66.40;;;;;;5035797;28;20044;-73
2022/05/01 12:05:31;;;;;;;1.05;0.73;;;16.60;65.10;;;;;;5056409;28;20409;-72
2022/05/01 12:07:59;;;;;;;0.88;0.88;;;16.30;67.40;;;;;;5023191;28;20040;-73
2022/05/01 12:10:25;;;;;;;1.55;1.45;;;16.40;67.80;;;;;;5020752;28;20396;-73
2022/05/01 12:12:51;;;;;;;0.20;0.20;;;16.40;67.10;;;;;;5021127;28;20090;-73
2022/05/01 12:15:17;;;;;;;0.20;0.20;;;16.50;66.90;;;;;;5022258;28;20466;-73
2022/05/01 12:17:43;;;;;;;0.20;0.20;;;16.90;68.10;;;;;;5033456;28;20033;-73
2022/05/01 12:20:10;;;;;;;0.90;0.90;;;17.20;66.80;;;;;;5014554;28;20048;-73
2022/05/01 12:22:38;;;;;;;0.10;0.10;;;17.60;68.30;;;;;;5032814;28;20523;-73
2022/05/01 12:25:07;;;;;;;1.88;1.40;;;18.00;66.10;;;;;;5014291;28;20506;-73
2022/05/01 12:27:34;;;;;;;0.60;0.60;;;18.30;65.40;;;;;;5032999;28;20091;-72
2022/05/01 12:30:02;;;;;;;0.98;0.98;;;18.40;65.30;;;;;;5036399;28;20045;-72
2022/05/01 12:32:28;;;;;;;1.23;1.13;;;18.00;64.30;;;;;;5022436;28;20047;-73
2022/05/01 12:34:57;;;;;;;9.10;1.40;;;17.60;64.80;;;;;;5021357;28;20723;-72
2022/05/01 12:37:34;;;;;;;0.32;0.32;;;17.20;63.80;;;;;;5025522;28;20125;-73
2022/05/01 12:40:10;;;;;;;0.20;0.20;;;16.90;65.00;;;;;;5018076;28;20049;-73
2022/05/01 12:45:38;;;;;;;0.35;0.35;;;16.90;66.10;;;;;;5023761;28;20037;-72
2022/05/01 12:48:05;;;;;;;1.45;0.93;;;16.70;66.30;;;;;;5010969;28;20508;-73
2022/05/01 12:50:32;;;;;;;0.43;0.43;;;16.70;67.40;;;;;;4983056;28;20111;-72
2022/05/01 12:53:28;;;;;;;0.20;0.20;;;16.70;68.20;;;;;;5005042;28;20413;-73
2022/05/01 12:55:56;;;;;;;0.20;0.20;;;16.70;67.40;;;;;;5020088;28;20128;-72
2022/05/01 12:58:32;;;;;;;0.88;0.88;;;16.70;65.60;;;;;;5021752;28;20767;-72
2022/05/01 13:01:00;;;;;;;0.20;0.20;;;16.70;67.00;;;;;;5037560;28;20071;-73
2022/05/01 13:03:37;;;;;;;0.75;0.75;;;16.90;65.10;;;;;;5008778;28;20040;-73
2022/05/01 13:06:03;;;;;;;2.28;0.80;;;17.10;67.30;;;;;;5028662;28;20045;-73
2022/05/01 13:08:32;;;;;;;4.85;1.08;;;17.20;66.30;;;;;;5029693;28;20051;-72
2022/05/01 13:11:24;;;;;;;0.20;0.20;;;17.30;65.60;;;;;;5003517;28;20142;-73
2022/05/01 13:13:57;;;;;;;0.73;0.43;;;17.20;66.50;;;;;;5030535;28;20086;-73
2022/05/01 13:16:43;;;;;;;0.40;0.40;;;17.20;65.70;;;;;;5008621;28;20300;-73
2022/05/01 13:19:12;;;;;;;1.05;0.98;;;17.20;64.10;;;;;;5014897;28;20061;-73
2022/05/01 13:21:59;;;;;;;0.10;0.10;;;17.40;65.10;;;;;;5011045;28;20388;-72
2022/05/01 13:24:31;;;;;;;2.47;2.00;;;17.70;63.10;;;;;;5006877;28;20040;-73
2022/05/01 13:27:00;;;;;;;0.90;0.90;;;18.10;63.60;;;;;;5022702;28;20039;-73
2022/05/01 13:29:26;;;;;;;1.10;1.00;;;18.10;62.80;;;;;;5022861;28;20048;-73
2022/05/01 13:31:52;;;;;;;0.70;0.70;;;18.10;63.70;;;;;;5022688;28;20084;-73
2022/05/01 13:34:18;;;;;;;2.72;0.52;;;18.00;61.20;;;;;;5023564;28;20068;-72
2022/05/01 13:36:44;;;;;;;1.10;1.00;;;17.90;62.00;;;;;;5009098;28;20166;-72